Tufão HAL 1985: trajetória, intensidade e histórico
28/06/1985, 00:00:00
11/06/1985, 00:00:00 – 28/06/1985, 00:00:00
Trajetória histórica
Acompanhe a evolução e o deslocamento de Tufão HAL em 1985, com a trajetória completa registrada, ventos máximos sustentados de 100 nós, pressão central mínima e cronologia detalhada.
| Data | Hora | Tipo | Ventokm/h | PressãohPa |
|---|---|---|---|---|
| 28/06 | 00:00 | EXCiclone extratropical | 55 | 998 |
| 27/06 | 21:00 | EXCiclone extratropical | 55 | 997 |
| 27/06 | 18:00 | EXCiclone extratropical | 55 | 995 |
| 27/06 | 15:00 | EXCiclone extratropical | 55 | 995 |
| 27/06 | 12:00 | EXCiclone extratropical | 55 | 996 |
| 27/06 | 09:00 | TDDepressão tropical | 55 | 995 |
| 27/06 | 06:00 | TDDepressão tropical | 55 | 996 |
| 27/06 | 03:00 | TDDepressão tropical | 45 | 995 |
| 27/06 | 00:00 | TDDepressão tropical | 35 | 996 |
| 26/06 | 21:00 | TDDepressão tropical | 35 | 995 |
| 26/06 | 18:00 | TDDepressão tropical | 35 | 996 |
| 26/06 | 15:00 | TDDepressão tropical | 35 | 995 |
| 26/06 | 12:00 | TDDepressão tropical | 35 | 996 |
| 26/06 | 09:00 | TDDepressão tropical | 35 | 995 |
| 26/06 | 06:00 | TDDepressão tropical | 35 | 996 |
| 26/06 | 03:00 | TDDepressão tropical | 35 | 995 |
| 26/06 | 00:00 | TDDepressão tropical | 35 | 996 |
| 25/06 | 21:00 | TDDepressão tropical | 35 | 994 |
| 25/06 | 18:00 | TDDepressão tropical | 35 | 996 |
| 25/06 | 15:00 | TDDepressão tropical | 35 | 993 |
| 25/06 | 12:00 | TDDepressão tropical | 35 | 994 |
| 25/06 | 09:00 | TDDepressão tropical | 35 | 992 |
| 25/06 | 06:00 | TDDepressão tropical | 45 | 992 |
| 25/06 | 03:00 | TDDepressão tropical | 50 | 989 |
| 25/06 | 00:00 | TSTempestade tropical | 55 | 990 |
| 24/06 | 21:00 | TSTempestade tropical | 65 | 987 |
| 24/06 | 18:00 | TSTempestade tropical | 75 | 985 |
| 24/06 | 15:00 | TSTempestade tropical | 85 | 983 |
| 24/06 | 12:00 | STSTempestade tropical severa | 95 | 980 |
| 24/06 | 09:00 | STSTempestade tropical severa | 115 | 977 |
| 24/06 | 06:00 | STSTempestade tropical severa | 140 | 980 |
| 24/06 | 03:00 | TTufão | 145 | 968 |
| 24/06 | 00:00 | STSTempestade tropical severa | 150 | 975 |
| 23/06 | 21:00 | TTufão | 155 | 965 |
| 23/06 | 18:00 | TTufão | 155 | 970 |
| 23/06 | 15:00 | TTufão | 165 | 965 |
| 23/06 | 12:00 | TTufão | 165 | 965 |
| 23/06 | 09:00 | TTufão | 170 | 965 |
| 23/06 | 06:00 | TTufão | 175 | 965 |
| 23/06 | 03:00 | TTufão | 180 | 965 |
| 23/06 | 00:00 | STSupertufão | 185 | 965 |
| 22/06 | 21:00 | TTufão | 175 | 965 |
| 22/06 | 18:00 | TTufão | 165 | 965 |
| 22/06 | 15:00 | TTufão | 155 | 963 |
| 22/06 | 12:00 | TTufão | 150 | 960 |
| 22/06 | 09:00 | TTufão | 150 | 960 |
| 22/06 | 06:00 | TTufão | 150 | 960 |
| 22/06 | 03:00 | TTufão | 155 | 960 |
| 22/06 | 00:00 | TTufão | 155 | 960 |
| 21/06 | 21:00 | TTufão | 165 | 959 |
| 21/06 | 18:00 | TTufão | 175 | 960 |
| 21/06 | 15:00 | TTufão | 175 | 960 |
| 21/06 | 12:00 | TTufão | 175 | 965 |
| 21/06 | 09:00 | TTufão | 170 | 964 |
| 21/06 | 06:00 | TTufão | 165 | 965 |
| 21/06 | 03:00 | TTufão | 165 | 968 |
| 21/06 | 00:00 | TTufão | 155 | 970 |
| 20/06 | 21:00 | TTufão | 150 | 970 |
| 20/06 | 18:00 | TTufão | 140 | 975 |
| 20/06 | 15:00 | TTufão | 130 | 973 |
| 20/06 | 12:00 | TTufão | 120 | 975 |
| 20/06 | 09:00 | TTufão | 120 | 978 |
| 20/06 | 06:00 | TTufão | 120 | 980 |
| 20/06 | 03:00 | STSTempestade tropical severa | 100 | 982 |
| 20/06 | 00:00 | STSTempestade tropical severa | 85 | 985 |
| 19/06 | 21:00 | TSTempestade tropical | 75 | 989 |
| 19/06 | 18:00 | TDDepressão tropical | 65 | 992 |
| 19/06 | 15:00 | TDDepressão tropical | 60 | 993 |
| 19/06 | 12:00 | TDDepressão tropical | 55 | 994 |
| 19/06 | 09:00 | TDDepressão tropical | 50 | 995 |
| 19/06 | 06:00 | TDDepressão tropical | 45 | 996 |
| 19/06 | 03:00 | TDDepressão tropical | 55 | 997 |
| 19/06 | 00:00 | TDDepressão tropical | 55 | 998 |
| 18/06 | 21:00 | TDDepressão tropical | 55 | 1001 |
| 18/06 | 18:00 | TDDepressão tropical | 55 | 1001 |
| 18/06 | 15:00 | TDDepressão tropical | 50 | 1001 |
| 18/06 | 12:00 | TDDepressão tropical | 45 | 1001 |
| 18/06 | 09:00 | TDDepressão tropical | 45 | 1001 |
| 18/06 | 06:00 | TDDepressão tropical | 45 | 1001 |
| 18/06 | 03:00 | TDDepressão tropical | 45 | 1002 |
| 18/06 | 00:00 | TDDepressão tropical | 45 | 1002 |
| 17/06 | 21:00 | TDDepressão tropical | 45 | 1002 |
| 17/06 | 18:00 | TDDepressão tropical | 45 | 1002 |
| 17/06 | 15:00 | TDDepressão tropical | 40 | 1002 |
| 17/06 | 12:00 | TDDepressão tropical | 35 | 1002 |
| 17/06 | 09:00 | TDDepressão tropical | 35 | 1002 |
| 17/06 | 06:00 | TDDepressão tropical | 35 | 1002 |
| 17/06 | 03:00 | TDDepressão tropical | -- | -- |
| 17/06 | 00:00 | TDDepressão tropical | -- | -- |
| 16/06 | 21:00 | TDDepressão tropical | -- | -- |
| 16/06 | 18:00 | TDDepressão tropical | -- | -- |
| 16/06 | 15:00 | TDDepressão tropical | -- | -- |
| 16/06 | 12:00 | TDDepressão tropical | -- | -- |
| 16/06 | 09:00 | TDDepressão tropical | -- | -- |
| 16/06 | 06:00 | TDDepressão tropical | -- | -- |
| 16/06 | 03:00 | TDDepressão tropical | -- | -- |
| 16/06 | 00:00 | TDDepressão tropical | -- | -- |
| 15/06 | 21:00 | TDDepressão tropical | -- | -- |
| 15/06 | 18:00 | TDDepressão tropical | -- | -- |
| 15/06 | 15:00 | TDDepressão tropical | -- | -- |
| 15/06 | 12:00 | TDDepressão tropical | -- | -- |
| 15/06 | 09:00 | TDDepressão tropical | -- | -- |
| 15/06 | 06:00 | TDDepressão tropical | -- | -- |
| 15/06 | 03:00 | TDDepressão tropical | -- | -- |
| 15/06 | 00:00 | TDDepressão tropical | -- | -- |
| 14/06 | 21:00 | TDDepressão tropical | -- | -- |
| 14/06 | 18:00 | TDDepressão tropical | -- | -- |
| 14/06 | 15:00 | TDDepressão tropical | -- | -- |
| 14/06 | 12:00 | TDDepressão tropical | -- | -- |
| 14/06 | 09:00 | TDDepressão tropical | -- | -- |
| 14/06 | 06:00 | TDDepressão tropical | -- | -- |
| 14/06 | 03:00 | TDDepressão tropical | -- | -- |
| 14/06 | 00:00 | TDDepressão tropical | -- | -- |
| 13/06 | 21:00 | TDDepressão tropical | -- | -- |
| 13/06 | 18:00 | TDDepressão tropical | -- | -- |
| 13/06 | 15:00 | TDDepressão tropical | -- | -- |
| 13/06 | 12:00 | TDDepressão tropical | -- | -- |
| 13/06 | 09:00 | TDDepressão tropical | -- | -- |
| 13/06 | 06:00 | TDDepressão tropical | -- | -- |
| 13/06 | 03:00 | TDDepressão tropical | -- | -- |
| 13/06 | 00:00 | TDDepressão tropical | -- | -- |
| 12/06 | 21:00 | TDDepressão tropical | -- | -- |
| 12/06 | 18:00 | TDDepressão tropical | -- | -- |
| 12/06 | 15:00 | TDDepressão tropical | -- | -- |
| 12/06 | 12:00 | TDDepressão tropical | -- | -- |
| 12/06 | 09:00 | TDDepressão tropical | -- | -- |
| 12/06 | 06:00 | TDDepressão tropical | -- | -- |
| 12/06 | 03:00 | TDDepressão tropical | -- | -- |
| 12/06 | 00:00 | TDDepressão tropical | -- | -- |
| 11/06 | 21:00 | TDDepressão tropical | -- | -- |
| 11/06 | 18:00 | TDDepressão tropical | -- | -- |
| 11/06 | 15:00 | TDDepressão tropical | -- | -- |
| 11/06 | 12:00 | TDDepressão tropical | -- | -- |
| 11/06 | 09:00 | TDDepressão tropical | -- | -- |
| 11/06 | 06:00 | TDDepressão tropical | -- | -- |
| 11/06 | 03:00 | TDDepressão tropical | -- | -- |
| 11/06 | 00:00 | TDDepressão tropical | -- | -- |
Cronologia de localização
137 Registos de localizaçãoDesastres naturais próximos
Detalhes do evento
Ligações das fontes
Também pode encontrar estas ferramentas úteis
A localização, a extensão e o estado de cada evento podem ser atualizados em momentos diferentes consoante a fonte. Confirme decisões importantes junto das autoridades oficiais de emergência.
Os registos de eventos provêm da NASA EONET e são complementados por registos de deslizamentos de terra do USGS FDSN. As análises e previsões de tempestades podem utilizar a NOAA NHC ou o JTWC, com registos históricos ATCF da UCAR/NCAR quando disponíveis. As imagens de satélite provêm da NASA Worldview/GIBS (GOES e Himawari) ou da EUMETSAT Meteosat, consoante a cobertura do mapa.
Fontes: NASA EONET · USGS · NOAA NHC · JTWC · UCAR/NCAR ATCF · NASA Worldview/GIBS · EUMETSAT Meteosat · OpenStreetMap contributors